sensor_id;sensor_type;location;lat;lon;timestamp;P1;durP1;ratioP1;P2;durP2;ratioP2
71496;SDS011;59317;53.218;5.730;2022-11-15T00:00:56;22.83;;;13.17;;
71496;SDS011;59317;53.218;5.730;2022-11-15T00:03:24;23.23;;;12.83;;
71496;SDS011;59317;53.218;5.730;2022-11-15T00:05:50;24.70;;;12.70;;
71496;SDS011;59317;53.218;5.730;2022-11-15T00:08:16;21.65;;;11.60;;
71496;SDS011;59317;53.218;5.730;2022-11-15T00:10:42;23.25;;;12.80;;
71496;SDS011;59317;53.218;5.730;2022-11-15T00:13:11;22.50;;;11.82;;
71496;SDS011;59317;53.218;5.730;2022-11-15T00:15:39;21.53;;;10.73;;
71496;SDS011;59317;53.218;5.730;2022-11-15T00:18:05;21.40;;;10.95;;
71496;SDS011;59317;53.218;5.730;2022-11-15T00:20:33;21.40;;;10.95;;
71496;SDS011;59317;53.218;5.730;2022-11-15T00:22:59;22.70;;;12.17;;
71496;SDS011;59317;53.218;5.730;2022-11-15T00:25:25;24.47;;;12.50;;
71496;SDS011;59317;53.218;5.730;2022-11-15T00:27:54;17.73;;;8.57;;
71496;SDS011;59317;53.218;5.730;2022-11-15T00:30:20;14.75;;;6.35;;
71496;SDS011;59317;53.218;5.730;2022-11-15T00:32:46;23.97;;;13.20;;
71496;SDS011;59317;53.218;5.730;2022-11-15T00:35:12;24.30;;;13.23;;
71496;SDS011;59317;53.218;5.730;2022-11-15T00:37:38;23.50;;;12.57;;
71496;SDS011;59317;53.218;5.730;2022-11-15T00:40:04;22.23;;;11.15;;
71496;SDS011;59317;53.218;5.730;2022-11-15T00:42:30;16.70;;;8.47;;
71496;SDS011;59317;53.218;5.730;2022-11-15T00:44:56;23.50;;;13.60;;
71496;SDS011;59317;53.218;5.730;2022-11-15T00:47:22;20.60;;;9.93;;
71496;SDS011;59317;53.218;5.730;2022-11-15T00:49:48;24.25;;;13.25;;
71496;SDS011;59317;53.218;5.730;2022-11-15T00:52:14;18.73;;;10.18;;
71496;SDS011;59317;53.218;5.730;2022-11-15T00:54:40;26.30;;;15.35;;
71496;SDS011;59317;53.218;5.730;2022-11-15T00:57:06;26.05;;;16.02;;
71496;SDS011;59317;53.218;5.730;2022-11-15T00:59:32;30.57;;;14.67;;
71496;SDS011;59317;53.218;5.730;2022-11-15T01:01:58;18.53;;;9.67;;
71496;SDS011;59317;53.218;5.730;2022-11-15T01:04:24;24.53;;;14.10;;
71496;SDS011;59317;53.218;5.730;2022-11-15T01:06:50;26.33;;;14.33;;
71496;SDS011;59317;53.218;5.730;2022-11-15T01:09:16;22.70;;;13.32;;
71496;SDS011;59317;53.218;5.730;2022-11-15T01:11:42;27.43;;;15.73;;
71496;SDS011;59317;53.218;5.730;2022-11-15T01:14:08;18.77;;;9.50;;
71496;SDS011;59317;53.218;5.730;2022-11-15T01:16:34;28.98;;;16.70;;
71496;SDS011;59317;53.218;5.730;2022-11-15T01:19:00;22.80;;;11.85;;
71496;SDS011;59317;53.218;5.730;2022-11-15T01:21:26;28.40;;;16.27;;
71496;SDS011;59317;53.218;5.730;2022-11-15T01:23:53;27.05;;;15.50;;
71496;SDS011;59317;53.218;5.730;2022-11-15T01:26:20;27.87;;;15.03;;
71496;SDS011;59317;53.218;5.730;2022-11-15T01:28:46;29.43;;;16.27;;
71496;SDS011;59317;53.218;5.730;2022-11-15T01:31:13;29.90;;;17.23;;
71496;SDS011;59317;53.218;5.730;2022-11-15T01:33:40;28.80;;;16.50;;
71496;SDS011;59317;53.218;5.730;2022-11-15T01:36:07;30.10;;;16.80;;
71496;SDS011;59317;53.218;5.730;2022-11-15T01:38:33;32.30;;;18.17;;
71496;SDS011;59317;53.218;5.730;2022-11-15T01:40:59;32.72;;;17.95;;
71496;SDS011;59317;53.218;5.730;2022-11-15T01:43:30;23.98;;;12.20;;
71496;SDS011;59317;53.218;5.730;2022-11-15T01:45:56;28.40;;;14.77;;
71496;SDS011;59317;53.218;5.730;2022-11-15T01:48:25;34.75;;;19.52;;
71496;SDS011;59317;53.218;5.730;2022-11-15T01:50:53;33.93;;;18.37;;
71496;SDS011;59317;53.218;5.730;2022-11-15T01:53:19;32.97;;;16.63;;
71496;SDS011;59317;53.218;5.730;2022-11-15T01:55:47;27.85;;;14.60;;
71496;SDS011;59317;53.218;5.730;2022-11-15T01:58:13;22.73;;;11.73;;
71496;SDS011;59317;53.218;5.730;2022-11-15T02:00:39;32.95;;;18.00;;
71496;SDS011;59317;53.218;5.730;2022-11-15T02:03:05;31.00;;;15.45;;
71496;SDS011;59317;53.218;5.730;2022-11-15T02:05:31;29.08;;;12.68;;
71496;SDS011;59317;53.218;5.730;2022-11-15T02:07:59;24.20;;;12.53;;
71496;SDS011;59317;53.218;5.730;2022-11-15T02:10:25;35.97;;;19.38;;
71496;SDS011;59317;53.218;5.730;2022-11-15T02:12:51;27.67;;;13.23;;
71496;SDS011;59317;53.218;5.730;2022-11-15T02:15:18;31.80;;;15.65;;
71496;SDS011;59317;53.218;5.730;2022-11-15T02:25:51;30.05;;;14.30;;
71496;SDS011;59317;53.218;5.730;2022-11-15T02:33:28;36.77;;;18.00;;
71496;SDS011;59317;53.218;5.730;2022-11-15T02:36:00;33.92;;;16.33;;
71496;SDS011;59317;53.218;5.730;2022-11-15T02:38:48;34.88;;;16.38;;
71496;SDS011;59317;53.218;5.730;2022-11-15T02:41:16;31.43;;;14.73;;
71496;SDS011;59317;53.218;5.730;2022-11-15T02:43:45;35.47;;;15.97;;
71496;SDS011;59317;53.218;5.730;2022-11-15T02:49:12;35.90;;;17.60;;
71496;SDS011;59317;53.218;5.730;2022-11-15T02:51:39;34.25;;;16.38;;
71496;SDS011;59317;53.218;5.730;2022-11-15T02:54:05;35.42;;;17.30;;
71496;SDS011;59317;53.218;5.730;2022-11-15T02:56:31;33.38;;;16.30;;
71496;SDS011;59317;53.218;5.730;2022-11-15T02:59:05;39.13;;;17.65;;
71496;SDS011;59317;53.218;5.730;2022-11-15T03:12:07;43.30;;;16.90;;
71496;SDS011;59317;53.218;5.730;2022-11-15T03:14:35;56.40;;;21.20;;
71496;SDS011;59317;53.218;5.730;2022-11-15T03:17:05;59.83;;;21.93;;
71496;SDS011;59317;53.218;5.730;2022-11-15T03:22:02;60.95;;;20.20;;
71496;SDS011;59317;53.218;5.730;2022-11-15T03:24:29;61.63;;;21.65;;
71496;SDS011;59317;53.218;5.730;2022-11-15T03:26:58;50.53;;;17.92;;
71496;SDS011;59317;53.218;5.730;2022-11-15T03:29:26;60.67;;;20.90;;
71496;SDS011;59317;53.218;5.730;2022-11-15T03:32:03;49.72;;;17.48;;
71496;SDS011;59317;53.218;5.730;2022-11-15T03:34:41;49.53;;;16.42;;
71496;SDS011;59317;53.218;5.730;2022-11-15T03:37:08;69.38;;;22.20;;
71496;SDS011;59317;53.218;5.730;2022-11-15T03:39:36;54.20;;;17.98;;
71496;SDS011;59317;53.218;5.730;2022-11-15T03:46:57;87.47;;;23.58;;
71496;SDS011;59317;53.218;5.730;2022-11-15T03:49:33;98.03;;;23.50;;
71496;SDS011;59317;53.218;5.730;2022-11-15T03:52:00;73.25;;;19.77;;
71496;SDS011;59317;53.218;5.730;2022-11-15T03:54:27;68.60;;;19.70;;
71496;SDS011;59317;53.218;5.730;2022-11-15T03:56:53;68.82;;;19.60;;
71496;SDS011;59317;53.218;5.730;2022-11-15T03:59:19;79.32;;;21.75;;
71496;SDS011;59317;53.218;5.730;2022-11-15T04:01:45;77.07;;;20.95;;
71496;SDS011;59317;53.218;5.730;2022-11-15T04:04:11;67.25;;;19.73;;
71496;SDS011;59317;53.218;5.730;2022-11-15T04:06:37;86.18;;;24.45;;
71496;SDS011;59317;53.218;5.730;2022-11-15T04:09:03;85.55;;;21.90;;
71496;SDS011;59317;53.218;5.730;2022-11-15T04:11:29;85.47;;;21.50;;
71496;SDS011;59317;53.218;5.730;2022-11-15T04:13:55;79.63;;;20.40;;
71496;SDS011;59317;53.218;5.730;2022-11-15T04:16:21;58.63;;;14.67;;
71496;SDS011;59317;53.218;5.730;2022-11-15T04:18:47;73.95;;;18.50;;
71496;SDS011;59317;53.218;5.730;2022-11-15T04:21:33;96.63;;;22.63;;
71496;SDS011;59317;53.218;5.730;2022-11-15T04:24:17;54.65;;;15.38;;
71496;SDS011;59317;53.218;5.730;2022-11-15T04:26:43;64.72;;;16.73;;
71496;SDS011;59317;53.218;5.730;2022-11-15T04:29:09;58.03;;;15.73;;
71496;SDS011;59317;53.218;5.730;2022-11-15T04:31:58;84.60;;;20.52;;
71496;SDS011;59317;53.218;5.730;2022-11-15T04:34:24;84.60;;;20.05;;
71496;SDS011;59317;53.218;5.730;2022-11-15T04:36:50;73.13;;;18.85;;
71496;SDS011;59317;53.218;5.730;2022-11-15T04:39:35;93.73;;;23.67;;
71496;SDS011;59317;53.218;5.730;2022-11-15T04:42:02;92.35;;;23.02;;
71496;SDS011;59317;53.218;5.730;2022-11-15T04:44:28;54.13;;;14.02;;
71496;SDS011;59317;53.218;5.730;2022-11-15T04:46:54;60.40;;;15.40;;
71496;SDS011;59317;53.218;5.730;2022-11-15T04:49:19;60.60;;;17.30;;
71496;SDS011;59317;53.218;5.730;2022-11-15T04:51:45;39.05;;;12.50;;
71496;SDS011;59317;53.218;5.730;2022-11-15T04:54:12;37.95;;;10.90;;
71496;SDS011;59317;53.218;5.730;2022-11-15T04:56:38;51.65;;;14.13;;
71496;SDS011;59317;53.218;5.730;2022-11-15T04:59:03;48.88;;;14.48;;
71496;SDS011;59317;53.218;5.730;2022-11-15T05:01:29;58.28;;;17.70;;
71496;SDS011;59317;53.218;5.730;2022-11-15T05:03:56;59.80;;;16.92;;
71496;SDS011;59317;53.218;5.730;2022-11-15T05:06:40;66.22;;;18.67;;
71496;SDS011;59317;53.218;5.730;2022-11-15T05:09:06;53.75;;;15.73;;
71496;SDS011;59317;53.218;5.730;2022-11-15T05:11:32;38.63;;;11.30;;
71496;SDS011;59317;53.218;5.730;2022-11-15T05:13:58;64.13;;;17.73;;
71496;SDS011;59317;53.218;5.730;2022-11-15T05:16:24;84.97;;;22.07;;
71496;SDS011;59317;53.218;5.730;2022-11-15T05:18:53;76.33;;;19.00;;
71496;SDS011;59317;53.218;5.730;2022-11-15T05:21:19;79.85;;;19.85;;
71496;SDS011;59317;53.218;5.730;2022-11-15T05:23:45;80.80;;;20.23;;
71496;SDS011;59317;53.218;5.730;2022-11-15T05:26:12;77.60;;;19.20;;
71496;SDS011;59317;53.218;5.730;2022-11-15T05:28:38;100.85;;;21.40;;
71496;SDS011;59317;53.218;5.730;2022-11-15T05:31:05;102.93;;;21.23;;
71496;SDS011;59317;53.218;5.730;2022-11-15T05:33:31;81.65;;;17.00;;
71496;SDS011;59317;53.218;5.730;2022-11-15T05:35:59;84.65;;;17.27;;
71496;SDS011;59317;53.218;5.730;2022-11-15T05:38:26;120.85;;;24.60;;
71496;SDS011;59317;53.218;5.730;2022-11-15T05:40:52;92.07;;;17.98;;
71496;SDS011;59317;53.218;5.730;2022-11-15T05:43:19;75.18;;;17.40;;
71496;SDS011;59317;53.218;5.730;2022-11-15T05:45:45;94.95;;;19.90;;
71496;SDS011;59317;53.218;5.730;2022-11-15T05:48:11;146.15;;;27.08;;
71496;SDS011;59317;53.218;5.730;2022-11-15T05:50:38;118.97;;;21.83;;
71496;SDS011;59317;53.218;5.730;2022-11-15T05:53:04;129.75;;;25.33;;
71496;SDS011;59317;53.218;5.730;2022-11-15T05:55:31;94.47;;;19.25;;
71496;SDS011;59317;53.218;5.730;2022-11-15T05:57:57;85.43;;;18.20;;
71496;SDS011;59317;53.218;5.730;2022-11-15T06:00:23;54.25;;;14.07;;
71496;SDS011;59317;53.218;5.730;2022-11-15T06:02:49;90.85;;;19.35;;
71496;SDS011;59317;53.218;5.730;2022-11-15T06:05:15;94.00;;;21.05;;
71496;SDS011;59317;53.218;5.730;2022-11-15T06:07:41;68.65;;;18.13;;
71496;SDS011;59317;53.218;5.730;2022-11-15T06:10:09;110.40;;;24.90;;
71496;SDS011;59317;53.218;5.730;2022-11-15T06:12:35;94.70;;;23.00;;
71496;SDS011;59317;53.218;5.730;2022-11-15T06:15:01;66.23;;;17.87;;
71496;SDS011;59317;53.218;5.730;2022-11-15T06:17:26;98.47;;;24.27;;
71496;SDS011;59317;53.218;5.730;2022-11-15T06:19:52;112.00;;;28.02;;
71496;SDS011;59317;53.218;5.730;2022-11-15T06:22:18;93.47;;;23.23;;
71496;SDS011;59317;53.218;5.730;2022-11-15T06:24:44;72.22;;;19.25;;
71496;SDS011;59317;53.218;5.730;2022-11-15T06:27:11;64.10;;;17.45;;
71496;SDS011;59317;53.218;5.730;2022-11-15T06:29:37;49.42;;;15.15;;
71496;SDS011;59317;53.218;5.730;2022-11-15T06:32:03;87.38;;;25.88;;
71496;SDS011;59317;53.218;5.730;2022-11-15T06:34:29;98.82;;;25.80;;
71496;SDS011;59317;53.218;5.730;2022-11-15T06:36:55;73.75;;;22.23;;
71496;SDS011;59317;53.218;5.730;2022-11-15T06:39:21;73.85;;;22.15;;
71496;SDS011;59317;53.218;5.730;2022-11-15T06:41:47;95.63;;;25.98;;
71496;SDS011;59317;53.218;5.730;2022-11-15T06:44:13;90.35;;;27.05;;
71496;SDS011;59317;53.218;5.730;2022-11-15T06:46:39;62.50;;;19.23;;
71496;SDS011;59317;53.218;5.730;2022-11-15T06:49:05;78.40;;;24.35;;
71496;SDS011;59317;53.218;5.730;2022-11-15T06:51:31;74.95;;;19.92;;
71496;SDS011;59317;53.218;5.730;2022-11-15T06:53:57;69.95;;;19.75;;
71496;SDS011;59317;53.218;5.730;2022-11-15T06:56:23;83.05;;;25.23;;
71496;SDS011;59317;53.218;5.730;2022-11-15T06:58:49;86.03;;;23.50;;
71496;SDS011;59317;53.218;5.730;2022-11-15T07:01:15;61.77;;;18.93;;
71496;SDS011;59317;53.218;5.730;2022-11-15T07:03:41;57.60;;;17.90;;
71496;SDS011;59317;53.218;5.730;2022-11-15T07:06:08;41.28;;;13.50;;
71496;SDS011;59317;53.218;5.730;2022-11-15T07:08:35;71.38;;;19.83;;
71496;SDS011;59317;53.218;5.730;2022-11-15T07:11:02;57.72;;;16.27;;
71496;SDS011;59317;53.218;5.730;2022-11-15T07:13:29;74.20;;;22.77;;
71496;SDS011;59317;53.218;5.730;2022-11-15T07:15:57;72.30;;;21.20;;
71496;SDS011;59317;53.218;5.730;2022-11-15T07:18:24;61.33;;;18.38;;
71496;SDS011;59317;53.218;5.730;2022-11-15T07:20:52;79.20;;;22.90;;
71496;SDS011;59317;53.218;5.730;2022-11-15T07:23:18;87.05;;;24.58;;
71496;SDS011;59317;53.218;5.730;2022-11-15T07:25:44;99.47;;;27.48;;
71496;SDS011;59317;53.218;5.730;2022-11-15T07:28:10;84.07;;;24.03;;
71496;SDS011;59317;53.218;5.730;2022-11-15T07:30:36;79.70;;;23.83;;
71496;SDS011;59317;53.218;5.730;2022-11-15T07:33:02;80.03;;;24.30;;
71496;SDS011;59317;53.218;5.730;2022-11-15T07:35:28;91.43;;;26.95;;
71496;SDS011;59317;53.218;5.730;2022-11-15T07:40:20;76.20;;;22.92;;
71496;SDS011;59317;53.218;5.730;2022-11-15T07:42:46;71.57;;;22.75;;
71496;SDS011;59317;53.218;5.730;2022-11-15T07:45:22;78.50;;;25.17;;
71496;SDS011;59317;53.218;5.730;2022-11-15T07:47:50;57.20;;;20.07;;
71496;SDS011;59317;53.218;5.730;2022-11-15T07:50:16;57.93;;;20.27;;
71496;SDS011;59317;53.218;5.730;2022-11-15T07:52:42;75.13;;;26.87;;
71496;SDS011;59317;53.218;5.730;2022-11-15T07:55:08;69.50;;;23.80;;
71496;SDS011;59317;53.218;5.730;2022-11-15T07:57:35;65.75;;;22.20;;
71496;SDS011;59317;53.218;5.730;2022-11-15T08:00:01;77.78;;;29.20;;
71496;SDS011;59317;53.218;5.730;2022-11-15T08:02:27;57.60;;;21.65;;
71496;SDS011;59317;53.218;5.730;2022-11-15T08:04:53;67.50;;;27.00;;
71496;SDS011;59317;53.218;5.730;2022-11-15T08:07:19;60.05;;;24.17;;
71496;SDS011;59317;53.218;5.730;2022-11-15T08:09:45;48.13;;;18.02;;
71496;SDS011;59317;53.218;5.730;2022-11-15T08:12:11;65.53;;;25.38;;
71496;SDS011;59317;53.218;5.730;2022-11-15T08:14:37;56.28;;;23.10;;
71496;SDS011;59317;53.218;5.730;2022-11-15T08:17:03;58.33;;;22.48;;
71496;SDS011;59317;53.218;5.730;2022-11-15T08:19:29;55.38;;;23.33;;
71496;SDS011;59317;53.218;5.730;2022-11-15T08:21:55;51.00;;;21.30;;
71496;SDS011;59317;53.218;5.730;2022-11-15T08:24:21;58.80;;;23.85;;
71496;SDS011;59317;53.218;5.730;2022-11-15T08:26:47;58.20;;;23.52;;
71496;SDS011;59317;53.218;5.730;2022-11-15T08:29:13;49.43;;;22.37;;
71496;SDS011;59317;53.218;5.730;2022-11-15T08:31:39;45.78;;;21.05;;
71496;SDS011;59317;53.218;5.730;2022-11-15T08:34:05;49.78;;;20.17;;
71496;SDS011;59317;53.218;5.730;2022-11-15T08:36:31;39.83;;;17.67;;
71496;SDS011;59317;53.218;5.730;2022-11-15T08:38:58;39.30;;;17.02;;
71496;SDS011;59317;53.218;5.730;2022-11-15T08:41:35;43.78;;;20.92;;
71496;SDS011;59317;53.218;5.730;2022-11-15T08:44:01;45.70;;;21.63;;
71496;SDS011;59317;53.218;5.730;2022-11-15T08:46:27;46.08;;;20.95;;
71496;SDS011;59317;53.218;5.730;2022-11-15T08:48:53;39.88;;;18.67;;
71496;SDS011;59317;53.218;5.730;2022-11-15T08:51:19;44.03;;;20.98;;
71496;SDS011;59317;53.218;5.730;2022-11-15T08:53:45;38.30;;;19.50;;
71496;SDS011;59317;53.218;5.730;2022-11-15T08:56:12;39.53;;;17.97;;
71496;SDS011;59317;53.218;5.730;2022-11-15T08:58:38;30.70;;;14.63;;
71496;SDS011;59317;53.218;5.730;2022-11-15T09:01:05;27.23;;;12.90;;
71496;SDS011;59317;53.218;5.730;2022-11-15T09:03:31;35.45;;;16.85;;
71496;SDS011;59317;53.218;5.730;2022-11-15T09:05:57;34.13;;;16.77;;
71496;SDS011;59317;53.218;5.730;2022-11-15T09:08:24;39.35;;;19.17;;
71496;SDS011;59317;53.218;5.730;2022-11-15T09:10:51;37.35;;;18.52;;
71496;SDS011;59317;53.218;5.730;2022-11-15T09:13:17;34.65;;;17.95;;
71496;SDS011;59317;53.218;5.730;2022-11-15T09:15:43;25.20;;;13.25;;
71496;SDS011;59317;53.218;5.730;2022-11-15T09:18:09;33.93;;;15.90;;
71496;SDS011;59317;53.218;5.730;2022-11-15T09:20:35;33.97;;;17.70;;
71496;SDS011;59317;53.218;5.730;2022-11-15T09:23:01;36.63;;;19.53;;
71496;SDS011;59317;53.218;5.730;2022-11-15T09:25:27;28.95;;;14.65;;
71496;SDS011;59317;53.218;5.730;2022-11-15T09:27:54;34.45;;;20.45;;
71496;SDS011;59317;53.218;5.730;2022-11-15T09:30:20;25.20;;;14.07;;
71496;SDS011;59317;53.218;5.730;2022-11-15T09:32:46;33.28;;;15.25;;
71496;SDS011;59317;53.218;5.730;2022-11-15T09:35:12;32.90;;;16.83;;
71496;SDS011;59317;53.218;5.730;2022-11-15T09:37:38;36.20;;;18.02;;
71496;SDS011;59317;53.218;5.730;2022-11-15T09:40:04;30.30;;;15.45;;
71496;SDS011;59317;53.218;5.730;2022-11-15T09:49:52;37.20;;;19.40;;
71496;SDS011;59317;53.218;5.730;2022-11-15T09:52:19;24.90;;;13.60;;
71496;SDS011;59317;53.218;5.730;2022-11-15T09:54:47;24.67;;;12.95;;
71496;SDS011;59317;53.218;5.730;2022-11-15T09:57:15;27.70;;;15.60;;
71496;SDS011;59317;53.218;5.730;2022-11-15T09:59:50;25.23;;;14.13;;
71496;SDS011;59317;53.218;5.730;2022-11-15T10:05:03;26.92;;;13.85;;
71496;SDS011;59317;53.218;5.730;2022-11-15T10:10:20;29.30;;;16.27;;
71496;SDS011;59317;53.218;5.730;2022-11-15T10:12:50;31.98;;;16.60;;
71496;SDS011;59317;53.218;5.730;2022-11-15T10:15:18;28.05;;;14.90;;
71496;SDS011;59317;53.218;5.730;2022-11-15T10:22:51;32.15;;;19.08;;
71496;SDS011;59317;53.218;5.730;2022-11-15T10:25:26;23.05;;;11.63;;
71496;SDS011;59317;53.218;5.730;2022-11-15T10:30:30;23.17;;;12.50;;
71496;SDS011;59317;53.218;5.730;2022-11-15T10:32:56;29.67;;;15.50;;
71496;SDS011;59317;53.218;5.730;2022-11-15T10:35:29;27.25;;;13.70;;
71496;SDS011;59317;53.218;5.730;2022-11-15T10:38:08;27.35;;;15.60;;
71496;SDS011;59317;53.218;5.730;2022-11-15T10:40:35;31.85;;;16.75;;
71496;SDS011;59317;53.218;5.730;2022-11-15T10:43:19;23.88;;;13.20;;
71496;SDS011;59317;53.218;5.730;2022-11-15T10:45:46;29.10;;;15.83;;
71496;SDS011;59317;53.218;5.730;2022-11-15T10:50:38;25.45;;;14.32;;
71496;SDS011;59317;53.218;5.730;2022-11-15T10:53:11;21.42;;;11.18;;
71496;SDS011;59317;53.218;5.730;2022-11-15T10:55:41;20.63;;;10.75;;
71496;SDS011;59317;53.218;5.730;2022-11-15T11:00:53;23.23;;;11.70;;
71496;SDS011;59317;53.218;5.730;2022-11-15T11:06:02;21.88;;;11.57;;
71496;SDS011;59317;53.218;5.730;2022-11-15T11:08:28;20.27;;;10.88;;
71496;SDS011;59317;53.218;5.730;2022-11-15T11:13:21;22.10;;;12.75;;
71496;SDS011;59317;53.218;5.730;2022-11-15T11:15:50;24.37;;;10.90;;
71496;SDS011;59317;53.218;5.730;2022-11-15T11:18:23;19.95;;;10.95;;
71496;SDS011;59317;53.218;5.730;2022-11-15T11:20:54;19.90;;;11.83;;
71496;SDS011;59317;53.218;5.730;2022-11-15T11:26:03;20.13;;;7.10;;
71496;SDS011;59317;53.218;5.730;2022-11-15T11:28:39;16.10;;;8.63;;
71496;SDS011;59317;53.218;5.730;2022-11-15T11:36:31;19.17;;;10.00;;
71496;SDS011;59317;53.218;5.730;2022-11-15T11:40:10;15.48;;;7.57;;
71496;SDS011;59317;53.218;5.730;2022-11-15T11:44:49;18.90;;;10.07;;
71496;SDS011;59317;53.218;5.730;2022-11-15T11:47:23;19.55;;;10.30;;
71496;SDS011;59317;53.218;5.730;2022-11-15T11:52:36;18.93;;;10.20;;
71496;SDS011;59317;53.218;5.730;2022-11-15T11:55:11;15.53;;;7.90;;
71496;SDS011;59317;53.218;5.730;2022-11-15T11:57:44;12.63;;;6.00;;
71496;SDS011;59317;53.218;5.730;2022-11-15T12:02:42;12.85;;;6.13;;
71496;SDS011;59317;53.218;5.730;2022-11-15T12:05:13;15.50;;;8.95;;
71496;SDS011;59317;53.218;5.730;2022-11-15T12:07:42;14.90;;;6.60;;
71496;SDS011;59317;53.218;5.730;2022-11-15T12:10:23;13.63;;;7.40;;
71496;SDS011;59317;53.218;5.730;2022-11-15T12:15:56;15.20;;;7.93;;
71496;SDS011;59317;53.218;5.730;2022-11-15T12:18:23;13.18;;;6.10;;
71496;SDS011;59317;53.218;5.730;2022-11-15T12:20:53;13.93;;;8.60;;
71496;SDS011;59317;53.218;5.730;2022-11-15T12:23:25;14.43;;;6.80;;
71496;SDS011;59317;53.218;5.730;2022-11-15T12:25:55;12.27;;;5.57;;
71496;SDS011;59317;53.218;5.730;2022-11-15T12:31:05;12.15;;;6.00;;
71496;SDS011;59317;53.218;5.730;2022-11-15T12:33:36;10.45;;;5.65;;
71496;SDS011;59317;53.218;5.730;2022-11-15T12:36:04;13.77;;;6.57;;
71496;SDS011;59317;53.218;5.730;2022-11-15T12:41:16;13.43;;;6.57;;
71496;SDS011;59317;53.218;5.730;2022-11-15T12:43:42;12.80;;;6.30;;
71496;SDS011;59317;53.218;5.730;2022-11-15T12:49:07;11.13;;;5.63;;
71496;SDS011;59317;53.218;5.730;2022-11-15T13:02:19;6.82;;;2.63;;
71496;SDS011;59317;53.218;5.730;2022-11-15T13:04:46;8.05;;;3.03;;
71496;SDS011;59317;53.218;5.730;2022-11-15T13:09:57;7.68;;;3.00;;
71496;SDS011;59317;53.218;5.730;2022-11-15T13:14:53;7.47;;;2.50;;
71496;SDS011;59317;53.218;5.730;2022-11-15T13:19:49;6.35;;;2.10;;
71496;SDS011;59317;53.218;5.730;2022-11-15T13:22:18;6.53;;;2.20;;
71496;SDS011;59317;53.218;5.730;2022-11-15T13:25:02;5.47;;;1.40;;
71496;SDS011;59317;53.218;5.730;2022-11-15T13:27:28;6.15;;;2.45;;
71496;SDS011;59317;53.218;5.730;2022-11-15T13:29:55;6.07;;;1.80;;
71496;SDS011;59317;53.218;5.730;2022-11-15T13:32:21;5.67;;;2.03;;
71496;SDS011;59317;53.218;5.730;2022-11-15T13:34:47;6.57;;;2.47;;
71496;SDS011;59317;53.218;5.730;2022-11-15T13:39:45;4.85;;;1.80;;
71496;SDS011;59317;53.218;5.730;2022-11-15T13:42:15;4.90;;;1.40;;
71496;SDS011;59317;53.218;5.730;2022-11-15T13:44:54;5.13;;;1.83;;
71496;SDS011;59317;53.218;5.730;2022-11-15T13:47:20;6.00;;;1.95;;
71496;SDS011;59317;53.218;5.730;2022-11-15T13:49:46;6.05;;;2.53;;
71496;SDS011;59317;53.218;5.730;2022-11-15T13:52:13;6.43;;;2.20;;
71496;SDS011;59317;53.218;5.730;2022-11-15T13:59:35;5.88;;;1.75;;
71496;SDS011;59317;53.218;5.730;2022-11-15T14:02:03;6.53;;;2.13;;
71496;SDS011;59317;53.218;5.730;2022-11-15T14:04:36;5.45;;;1.77;;
71496;SDS011;59317;53.218;5.730;2022-11-15T14:07:04;6.43;;;1.90;;
71496;SDS011;59317;53.218;5.730;2022-11-15T14:09:34;4.07;;;1.40;;
71496;SDS011;59317;53.218;5.730;2022-11-15T14:12:01;5.67;;;1.90;;
71496;SDS011;59317;53.218;5.730;2022-11-15T14:14:28;4.85;;;1.83;;
71496;SDS011;59317;53.218;5.730;2022-11-15T14:16:56;8.18;;;1.70;;
71496;SDS011;59317;53.218;5.730;2022-11-15T14:24:36;5.80;;;2.10;;
71496;SDS011;59317;53.218;5.730;2022-11-15T14:29:47;5.90;;;2.05;;
71496;SDS011;59317;53.218;5.730;2022-11-15T14:32:18;6.38;;;2.10;;
71496;SDS011;59317;53.218;5.730;2022-11-15T14:34:45;4.63;;;1.75;;
71496;SDS011;59317;53.218;5.730;2022-11-15T14:37:18;4.70;;;1.50;;
71496;SDS011;59317;53.218;5.730;2022-11-15T14:39:44;5.40;;;1.52;;
71496;SDS011;59317;53.218;5.730;2022-11-15T14:42:10;4.78;;;1.67;;
71496;SDS011;59317;53.218;5.730;2022-11-15T14:44:36;4.88;;;1.42;;
71496;SDS011;59317;53.218;5.730;2022-11-15T14:47:02;4.85;;;1.55;;
71496;SDS011;59317;53.218;5.730;2022-11-15T14:49:28;4.90;;;1.30;;
71496;SDS011;59317;53.218;5.730;2022-11-15T14:51:54;4.40;;;1.30;;
71496;SDS011;59317;53.218;5.730;2022-11-15T14:54:20;5.13;;;1.50;;
71496;SDS011;59317;53.218;5.730;2022-11-15T14:56:46;5.17;;;1.30;;
71496;SDS011;59317;53.218;5.730;2022-11-15T14:59:12;4.60;;;1.48;;
71496;SDS011;59317;53.218;5.730;2022-11-15T15:01:38;4.80;;;1.73;;
71496;SDS011;59317;53.218;5.730;2022-11-15T15:04:04;6.43;;;2.05;;
71496;SDS011;59317;53.218;5.730;2022-11-15T15:09:35;4.95;;;1.40;;
71496;SDS011;59317;53.218;5.730;2022-11-15T15:12:01;6.00;;;1.65;;
71496;SDS011;59317;53.218;5.730;2022-11-15T15:14:27;3.30;;;1.10;;
71496;SDS011;59317;53.218;5.730;2022-11-15T15:16:53;4.03;;;1.20;;
71496;SDS011;59317;53.218;5.730;2022-11-15T15:19:19;4.63;;;1.30;;
71496;SDS011;59317;53.218;5.730;2022-11-15T15:21:45;4.82;;;1.10;;
71496;SDS011;59317;53.218;5.730;2022-11-15T15:24:13;4.25;;;1.38;;
71496;SDS011;59317;53.218;5.730;2022-11-15T15:26:42;5.45;;;1.40;;
71496;SDS011;59317;53.218;5.730;2022-11-15T15:29:08;4.80;;;1.38;;
71496;SDS011;59317;53.218;5.730;2022-11-15T15:31:34;4.30;;;1.13;;
71496;SDS011;59317;53.218;5.730;2022-11-15T15:34:01;4.90;;;1.08;;
71496;SDS011;59317;53.218;5.730;2022-11-15T15:36:27;3.65;;;0.90;;
71496;SDS011;59317;53.218;5.730;2022-11-15T15:38:53;4.35;;;1.10;;
71496;SDS011;59317;53.218;5.730;2022-11-15T15:41:19;4.10;;;1.13;;
71496;SDS011;59317;53.218;5.730;2022-11-15T15:43:46;3.25;;;1.00;;
71496;SDS011;59317;53.218;5.730;2022-11-15T15:46:15;8.07;;;1.30;;
71496;SDS011;59317;53.218;5.730;2022-11-15T15:48:42;2.75;;;0.80;;
71496;SDS011;59317;53.218;5.730;2022-11-15T15:51:08;3.87;;;1.27;;
71496;SDS011;59317;53.218;5.730;2022-11-15T15:53:55;4.00;;;1.10;;
71496;SDS011;59317;53.218;5.730;2022-11-15T15:56:23;2.57;;;0.70;;
71496;SDS011;59317;53.218;5.730;2022-11-15T15:58:50;5.20;;;1.20;;
71496;SDS011;59317;53.218;5.730;2022-11-15T16:01:17;3.97;;;0.90;;
71496;SDS011;59317;53.218;5.730;2022-11-15T16:03:43;3.42;;;0.90;;
71496;SDS011;59317;53.218;5.730;2022-11-15T16:09:15;4.43;;;1.23;;
71496;SDS011;59317;53.218;5.730;2022-11-15T16:11:43;3.70;;;0.70;;
71496;SDS011;59317;53.218;5.730;2022-11-15T16:14:09;3.73;;;0.90;;
71496;SDS011;59317;53.218;5.730;2022-11-15T16:16:35;3.43;;;1.00;;
71496;SDS011;59317;53.218;5.730;2022-11-15T16:19:02;4.45;;;1.05;;
71496;SDS011;59317;53.218;5.730;2022-11-15T16:21:28;3.22;;;0.88;;
71496;SDS011;59317;53.218;5.730;2022-11-15T16:23:54;3.38;;;0.88;;
71496;SDS011;59317;53.218;5.730;2022-11-15T16:26:21;3.00;;;0.88;;
71496;SDS011;59317;53.218;5.730;2022-11-15T16:28:48;3.97;;;0.93;;
71496;SDS011;59317;53.218;5.730;2022-11-15T16:31:14;4.10;;;1.50;;
71496;SDS011;59317;53.218;5.730;2022-11-15T16:33:43;5.25;;;0.90;;
71496;SDS011;59317;53.218;5.730;2022-11-15T16:36:27;4.60;;;1.08;;
71496;SDS011;59317;53.218;5.730;2022-11-15T16:38:55;4.22;;;1.27;;
71496;SDS011;59317;53.218;5.730;2022-11-15T16:41:22;3.25;;;0.95;;
71496;SDS011;59317;53.218;5.730;2022-11-15T16:43:48;3.90;;;1.10;;
71496;SDS011;59317;53.218;5.730;2022-11-15T16:48:43;4.28;;;1.20;;